Terminal Aerodrome Forecast
Issued by NWS Quad Cities IA IL

Home | Current Version | Previous Version | Text Only | Print | Product List | Glossary On
Versions: 1 2 3 4 5 6 7 8 9 10 11 12 13 14 15 16 17
391
FTUS43 KDVN 190205 AAA
TAFMLI
TAF AMD
KMLI 190205Z 1902/1924 30016G24KT P6SM SCT025
      TEMPO 1902/1904 BKN025
     FM190400 30012KT P6SM SCT020=

USA.gov is the U.S. government's official web portal to all federal, state and local government web resources and services.